sensor_id;sensor_type;location;lat;lon;timestamp;P1;durP1;ratioP1;P2;durP2;ratioP2
6642;SDS011;3357;48.050;7.800;2022-11-23T00:03:47;3.53;;;0.77;;
6642;SDS011;3357;48.050;7.800;2022-11-23T00:06:14;2.47;;;0.70;;
6642;SDS011;3357;48.050;7.800;2022-11-23T00:08:40;2.63;;;0.80;;
6642;SDS011;3357;48.050;7.800;2022-11-23T00:11:07;4.30;;;0.73;;
6642;SDS011;3357;48.050;7.800;2022-11-23T00:13:33;6.60;;;1.07;;
6642;SDS011;3357;48.050;7.800;2022-11-23T00:15:59;4.53;;;0.77;;
6642;SDS011;3357;48.050;7.800;2022-11-23T00:18:26;5.03;;;1.00;;
6642;SDS011;3357;48.050;7.800;2022-11-23T00:20:51;5.37;;;0.70;;
6642;SDS011;3357;48.050;7.800;2022-11-23T00:23:16;3.83;;;0.80;;
6642;SDS011;3357;48.050;7.800;2022-11-23T00:25:43;0.60;;;0.60;;
6642;SDS011;3357;48.050;7.800;2022-11-23T00:28:09;4.13;;;0.70;;
6642;SDS011;3357;48.050;7.800;2022-11-23T00:30:35;2.90;;;0.90;;
6642;SDS011;3357;48.050;7.800;2022-11-23T00:33:00;2.37;;;0.70;;
6642;SDS011;3357;48.050;7.800;2022-11-23T00:35:26;3.73;;;1.10;;
6642;SDS011;3357;48.050;7.800;2022-11-23T00:37:52;1.00;;;0.70;;
6642;SDS011;3357;48.050;7.800;2022-11-23T00:40:17;4.03;;;1.33;;
6642;SDS011;3357;48.050;7.800;2022-11-23T00:42:42;5.43;;;1.00;;
6642;SDS011;3357;48.050;7.800;2022-11-23T00:45:07;5.67;;;0.80;;
6642;SDS011;3357;48.050;7.800;2022-11-23T00:47:33;3.43;;;0.63;;
6642;SDS011;3357;48.050;7.800;2022-11-23T00:49:59;4.10;;;1.13;;
6642;SDS011;3357;48.050;7.800;2022-11-23T00:52:24;1.80;;;1.30;;
6642;SDS011;3357;48.050;7.800;2022-11-23T00:54:49;4.83;;;0.70;;
6642;SDS011;3357;48.050;7.800;2022-11-23T00:57:14;1.87;;;0.73;;
6642;SDS011;3357;48.050;7.800;2022-11-23T00:59:40;2.93;;;0.97;;
6642;SDS011;3357;48.050;7.800;2022-11-23T01:02:05;2.97;;;0.80;;
6642;SDS011;3357;48.050;7.800;2022-11-23T01:04:31;2.40;;;0.67;;
6642;SDS011;3357;48.050;7.800;2022-11-23T01:06:56;2.00;;;0.70;;
6642;SDS011;3357;48.050;7.800;2022-11-23T01:09:22;4.00;;;0.80;;
6642;SDS011;3357;48.050;7.800;2022-11-23T01:11:50;3.87;;;0.90;;
6642;SDS011;3357;48.050;7.800;2022-11-23T01:14:16;4.67;;;0.87;;
6642;SDS011;3357;48.050;7.800;2022-11-23T01:16:42;2.67;;;0.80;;
6642;SDS011;3357;48.050;7.800;2022-11-23T01:19:12;1.40;;;0.50;;
6642;SDS011;3357;48.050;7.800;2022-11-23T01:21:38;1.70;;;0.77;;
6642;SDS011;3357;48.050;7.800;2022-11-23T01:24:08;1.80;;;0.70;;
6642;SDS011;3357;48.050;7.800;2022-11-23T01:26:39;1.83;;;0.80;;
6642;SDS011;3357;48.050;7.800;2022-11-23T01:29:04;1.47;;;0.70;;
6642;SDS011;3357;48.050;7.800;2022-11-23T01:31:30;3.60;;;0.60;;
6642;SDS011;3357;48.050;7.800;2022-11-23T01:33:56;4.30;;;0.80;;
6642;SDS011;3357;48.050;7.800;2022-11-23T01:36:24;1.27;;;0.70;;
6642;SDS011;3357;48.050;7.800;2022-11-23T01:38:50;4.40;;;1.10;;
6642;SDS011;3357;48.050;7.800;2022-11-23T01:41:19;3.30;;;0.70;;
6642;SDS011;3357;48.050;7.800;2022-11-23T01:43:46;4.00;;;0.80;;
6642;SDS011;3357;48.050;7.800;2022-11-23T01:46:11;7.47;;;0.70;;
6642;SDS011;3357;48.050;7.800;2022-11-23T01:51:10;1.00;;;0.70;;
6642;SDS011;3357;48.050;7.800;2022-11-23T01:53:37;0.50;;;0.50;;
6642;SDS011;3357;48.050;7.800;2022-11-23T01:56:04;1.00;;;0.60;;
6642;SDS011;3357;48.050;7.800;2022-11-23T01:58:31;2.10;;;0.60;;
6642;SDS011;3357;48.050;7.800;2022-11-23T02:00:59;2.80;;;0.70;;
6642;SDS011;3357;48.050;7.800;2022-11-23T02:03:24;1.63;;;0.60;;
6642;SDS011;3357;48.050;7.800;2022-11-23T02:05:53;4.43;;;0.80;;
6642;SDS011;3357;48.050;7.800;2022-11-23T02:08:24;5.00;;;0.80;;
6642;SDS011;3357;48.050;7.800;2022-11-23T02:10:51;2.03;;;0.60;;
6642;SDS011;3357;48.050;7.800;2022-11-23T02:13:16;2.47;;;1.03;;
6642;SDS011;3357;48.050;7.800;2022-11-23T02:15:42;1.43;;;0.77;;
6642;SDS011;3357;48.050;7.800;2022-11-23T02:18:21;2.00;;;0.70;;
6642;SDS011;3357;48.050;7.800;2022-11-23T02:20:47;1.47;;;0.50;;
6642;SDS011;3357;48.050;7.800;2022-11-23T02:26:01;3.53;;;0.80;;
6642;SDS011;3357;48.050;7.800;2022-11-23T02:28:32;1.80;;;0.77;;
6642;SDS011;3357;48.050;7.800;2022-11-23T02:31:02;2.97;;;0.60;;
6642;SDS011;3357;48.050;7.800;2022-11-23T02:33:28;4.30;;;0.77;;
6642;SDS011;3357;48.050;7.800;2022-11-23T02:35:55;3.10;;;0.70;;
6642;SDS011;3357;48.050;7.800;2022-11-23T02:38:23;4.00;;;0.80;;
6642;SDS011;3357;48.050;7.800;2022-11-23T02:40:50;1.50;;;0.60;;
6642;SDS011;3357;48.050;7.800;2022-11-23T02:43:15;3.13;;;0.60;;
6642;SDS011;3357;48.050;7.800;2022-11-23T02:45:50;1.97;;;0.80;;
6642;SDS011;3357;48.050;7.800;2022-11-23T02:48:19;2.40;;;0.70;;
6642;SDS011;3357;48.050;7.800;2022-11-23T02:50:45;2.40;;;0.73;;
6642;SDS011;3357;48.050;7.800;2022-11-23T02:53:10;2.03;;;0.60;;
6642;SDS011;3357;48.050;7.800;2022-11-23T02:55:36;5.03;;;0.73;;
6642;SDS011;3357;48.050;7.800;2022-11-23T02:58:02;2.10;;;0.70;;
6642;SDS011;3357;48.050;7.800;2022-11-23T03:00:28;0.80;;;0.57;;
6642;SDS011;3357;48.050;7.800;2022-11-23T03:02:53;2.13;;;0.53;;
6642;SDS011;3357;48.050;7.800;2022-11-23T03:05:19;2.27;;;0.60;;
6642;SDS011;3357;48.050;7.800;2022-11-23T03:07:45;9.50;;;0.93;;
6642;SDS011;3357;48.050;7.800;2022-11-23T03:10:10;2.00;;;0.70;;
6642;SDS011;3357;48.050;7.800;2022-11-23T03:12:36;9.00;;;0.80;;
6642;SDS011;3357;48.050;7.800;2022-11-23T03:15:01;2.07;;;0.83;;
6642;SDS011;3357;48.050;7.800;2022-11-23T03:17:27;5.00;;;0.73;;
6642;SDS011;3357;48.050;7.800;2022-11-23T03:19:53;2.80;;;0.90;;
6642;SDS011;3357;48.050;7.800;2022-11-23T03:22:18;1.80;;;0.70;;
6642;SDS011;3357;48.050;7.800;2022-11-23T03:24:45;1.97;;;0.90;;
6642;SDS011;3357;48.050;7.800;2022-11-23T03:27:10;2.67;;;0.50;;
6642;SDS011;3357;48.050;7.800;2022-11-23T03:29:35;3.60;;;0.80;;
6642;SDS011;3357;48.050;7.800;2022-11-23T03:32:01;1.47;;;0.73;;
6642;SDS011;3357;48.050;7.800;2022-11-23T03:34:27;3.37;;;0.70;;
6642;SDS011;3357;48.050;7.800;2022-11-23T03:36:53;6.03;;;0.90;;
6642;SDS011;3357;48.050;7.800;2022-11-23T03:39:18;3.90;;;0.80;;
6642;SDS011;3357;48.050;7.800;2022-11-23T03:41:43;2.13;;;0.80;;
6642;SDS011;3357;48.050;7.800;2022-11-23T03:44:08;4.27;;;0.93;;
6642;SDS011;3357;48.050;7.800;2022-11-23T03:46:34;5.83;;;0.80;;
6642;SDS011;3357;48.050;7.800;2022-11-23T03:48:59;1.73;;;0.80;;
6642;SDS011;3357;48.050;7.800;2022-11-23T03:51:25;4.97;;;0.90;;
6642;SDS011;3357;48.050;7.800;2022-11-23T03:53:53;3.57;;;0.73;;
6642;SDS011;3357;48.050;7.800;2022-11-23T03:56:18;1.97;;;0.67;;
6642;SDS011;3357;48.050;7.800;2022-11-23T03:58:44;3.53;;;0.80;;
6642;SDS011;3357;48.050;7.800;2022-11-23T04:01:09;3.00;;;0.60;;
6642;SDS011;3357;48.050;7.800;2022-11-23T04:03:34;0.70;;;0.60;;
6642;SDS011;3357;48.050;7.800;2022-11-23T04:06:00;2.20;;;0.70;;
6642;SDS011;3357;48.050;7.800;2022-11-23T04:08:25;2.77;;;1.00;;
6642;SDS011;3357;48.050;7.800;2022-11-23T04:10:50;7.73;;;0.70;;
6642;SDS011;3357;48.050;7.800;2022-11-23T04:13:17;2.30;;;0.80;;
6642;SDS011;3357;48.050;7.800;2022-11-23T04:15:42;4.30;;;0.70;;
6642;SDS011;3357;48.050;7.800;2022-11-23T04:18:07;0.80;;;0.60;;
6642;SDS011;3357;48.050;7.800;2022-11-23T04:20:33;1.93;;;0.73;;
6642;SDS011;3357;48.050;7.800;2022-11-23T04:22:58;4.87;;;0.90;;
6642;SDS011;3357;48.050;7.800;2022-11-23T04:25:23;1.07;;;0.80;;
6642;SDS011;3357;48.050;7.800;2022-11-23T04:27:48;1.13;;;0.60;;
6642;SDS011;3357;48.050;7.800;2022-11-23T04:30:14;7.37;;;0.90;;
6642;SDS011;3357;48.050;7.800;2022-11-23T04:32:39;4.53;;;0.80;;
6642;SDS011;3357;48.050;7.800;2022-11-23T04:35:04;1.10;;;0.73;;
6642;SDS011;3357;48.050;7.800;2022-11-23T04:37:30;4.90;;;0.87;;
6642;SDS011;3357;48.050;7.800;2022-11-23T04:39:55;2.20;;;0.77;;
6642;SDS011;3357;48.050;7.800;2022-11-23T04:42:21;2.20;;;0.80;;
6642;SDS011;3357;48.050;7.800;2022-11-23T04:44:46;2.80;;;0.97;;
6642;SDS011;3357;48.050;7.800;2022-11-23T04:47:11;0.80;;;0.70;;
6642;SDS011;3357;48.050;7.800;2022-11-23T04:49:36;2.53;;;0.70;;
6642;SDS011;3357;48.050;7.800;2022-11-23T04:52:02;2.10;;;0.60;;
6642;SDS011;3357;48.050;7.800;2022-11-23T04:54:27;3.83;;;0.97;;
6642;SDS011;3357;48.050;7.800;2022-11-23T04:56:53;1.83;;;0.60;;
6642;SDS011;3357;48.050;7.800;2022-11-23T04:59:18;2.40;;;0.60;;
6642;SDS011;3357;48.050;7.800;2022-11-23T05:01:44;1.23;;;0.70;;
6642;SDS011;3357;48.050;7.800;2022-11-23T05:04:09;1.30;;;0.50;;
6642;SDS011;3357;48.050;7.800;2022-11-23T05:06:35;2.33;;;0.70;;
6642;SDS011;3357;48.050;7.800;2022-11-23T05:09:00;1.97;;;0.70;;
6642;SDS011;3357;48.050;7.800;2022-11-23T05:11:26;2.30;;;0.90;;
6642;SDS011;3357;48.050;7.800;2022-11-23T05:13:51;3.27;;;0.90;;
6642;SDS011;3357;48.050;7.800;2022-11-23T05:16:16;1.37;;;0.70;;
6642;SDS011;3357;48.050;7.800;2022-11-23T05:18:41;3.33;;;1.00;;
6642;SDS011;3357;48.050;7.800;2022-11-23T05:21:07;1.23;;;0.70;;
6642;SDS011;3357;48.050;7.800;2022-11-23T05:23:32;5.50;;;1.10;;
6642;SDS011;3357;48.050;7.800;2022-11-23T05:25:57;9.83;;;1.33;;
6642;SDS011;3357;48.050;7.800;2022-11-23T05:28:22;5.97;;;2.30;;
6642;SDS011;3357;48.050;7.800;2022-11-23T05:30:48;6.80;;;2.20;;
6642;SDS011;3357;48.050;7.800;2022-11-23T05:33:13;7.53;;;1.97;;
6642;SDS011;3357;48.050;7.800;2022-11-23T05:35:39;2.70;;;1.37;;
6642;SDS011;3357;48.050;7.800;2022-11-23T05:38:04;4.10;;;1.57;;
6642;SDS011;3357;48.050;7.800;2022-11-23T05:40:30;2.90;;;1.10;;
6642;SDS011;3357;48.050;7.800;2022-11-23T05:42:58;2.00;;;0.97;;
6642;SDS011;3357;48.050;7.800;2022-11-23T05:45:24;3.27;;;1.20;;
6642;SDS011;3357;48.050;7.800;2022-11-23T05:47:50;5.27;;;2.80;;
6642;SDS011;3357;48.050;7.800;2022-11-23T05:50:17;10.43;;;3.60;;
6642;SDS011;3357;48.050;7.800;2022-11-23T05:52:42;8.10;;;4.17;;
6642;SDS011;3357;48.050;7.800;2022-11-23T05:55:08;6.80;;;2.70;;
6642;SDS011;3357;48.050;7.800;2022-11-23T05:57:33;6.13;;;2.63;;
6642;SDS011;3357;48.050;7.800;2022-11-23T05:59:58;4.57;;;1.70;;
6642;SDS011;3357;48.050;7.800;2022-11-23T06:02:24;5.30;;;2.60;;
6642;SDS011;3357;48.050;7.800;2022-11-23T06:04:49;3.87;;;2.00;;
6642;SDS011;3357;48.050;7.800;2022-11-23T06:07:14;5.23;;;1.80;;
6642;SDS011;3357;48.050;7.800;2022-11-23T06:09:40;3.50;;;2.30;;
6642;SDS011;3357;48.050;7.800;2022-11-23T06:12:05;7.13;;;3.03;;
6642;SDS011;3357;48.050;7.800;2022-11-23T06:14:30;5.17;;;3.13;;
6642;SDS011;3357;48.050;7.800;2022-11-23T06:16:56;6.70;;;3.13;;
6642;SDS011;3357;48.050;7.800;2022-11-23T06:19:21;8.93;;;3.07;;
6642;SDS011;3357;48.050;7.800;2022-11-23T06:21:46;5.43;;;2.90;;
6642;SDS011;3357;48.050;7.800;2022-11-23T06:24:11;7.70;;;2.93;;
6642;SDS011;3357;48.050;7.800;2022-11-23T06:26:37;6.57;;;3.70;;
6642;SDS011;3357;48.050;7.800;2022-11-23T06:29:02;5.07;;;3.63;;
6642;SDS011;3357;48.050;7.800;2022-11-23T06:31:27;6.93;;;3.80;;
6642;SDS011;3357;48.050;7.800;2022-11-23T06:33:53;6.97;;;3.50;;
6642;SDS011;3357;48.050;7.800;2022-11-23T06:36:18;10.60;;;4.47;;
6642;SDS011;3357;48.050;7.800;2022-11-23T06:38:44;5.97;;;2.90;;
6642;SDS011;3357;48.050;7.800;2022-11-23T06:41:09;9.57;;;2.73;;
6642;SDS011;3357;48.050;7.800;2022-11-23T06:43:34;3.70;;;2.43;;
6642;SDS011;3357;48.050;7.800;2022-11-23T06:46:02;7.63;;;3.10;;
6642;SDS011;3357;48.050;7.800;2022-11-23T06:48:29;6.10;;;2.30;;
6642;SDS011;3357;48.050;7.800;2022-11-23T06:50:59;2.70;;;1.90;;
6642;SDS011;3357;48.050;7.800;2022-11-23T06:53:25;4.70;;;2.30;;
6642;SDS011;3357;48.050;7.800;2022-11-23T06:55:52;4.27;;;2.30;;
6642;SDS011;3357;48.050;7.800;2022-11-23T06:58:17;5.47;;;2.20;;
6642;SDS011;3357;48.050;7.800;2022-11-23T07:00:43;9.70;;;2.70;;
6642;SDS011;3357;48.050;7.800;2022-11-23T07:03:21;9.40;;;2.43;;
6642;SDS011;3357;48.050;7.800;2022-11-23T07:05:48;6.77;;;2.60;;
6642;SDS011;3357;48.050;7.800;2022-11-23T07:08:13;4.00;;;2.40;;
6642;SDS011;3357;48.050;7.800;2022-11-23T07:10:41;5.83;;;2.20;;
6642;SDS011;3357;48.050;7.800;2022-11-23T07:13:06;6.17;;;1.90;;
6642;SDS011;3357;48.050;7.800;2022-11-23T07:15:34;5.37;;;2.00;;
6642;SDS011;3357;48.050;7.800;2022-11-23T07:18:00;8.20;;;1.97;;
6642;SDS011;3357;48.050;7.800;2022-11-23T07:20:26;3.10;;;2.00;;
6642;SDS011;3357;48.050;7.800;2022-11-23T07:23:01;11.80;;;2.50;;
6642;SDS011;3357;48.050;7.800;2022-11-23T07:25:28;11.27;;;2.93;;
6642;SDS011;3357;48.050;7.800;2022-11-23T07:27:57;9.13;;;2.67;;
6642;SDS011;3357;48.050;7.800;2022-11-23T07:30:24;2.87;;;2.17;;
6642;SDS011;3357;48.050;7.800;2022-11-23T07:32:51;8.20;;;2.60;;
6642;SDS011;3357;48.050;7.800;2022-11-23T07:35:16;2.70;;;2.23;;
6642;SDS011;3357;48.050;7.800;2022-11-23T07:37:42;3.10;;;2.20;;
6642;SDS011;3357;48.050;7.800;2022-11-23T07:40:08;8.10;;;2.13;;
6642;SDS011;3357;48.050;7.800;2022-11-23T07:42:34;7.73;;;2.53;;
6642;SDS011;3357;48.050;7.800;2022-11-23T07:44:59;8.47;;;3.07;;
6642;SDS011;3357;48.050;7.800;2022-11-23T07:47:24;5.90;;;2.70;;
6642;SDS011;3357;48.050;7.800;2022-11-23T07:49:50;14.07;;;4.00;;
6642;SDS011;3357;48.050;7.800;2022-11-23T07:52:15;7.37;;;2.47;;
6642;SDS011;3357;48.050;7.800;2022-11-23T07:54:41;10.07;;;2.57;;
6642;SDS011;3357;48.050;7.800;2022-11-23T07:57:06;4.60;;;2.60;;
6642;SDS011;3357;48.050;7.800;2022-11-23T07:59:31;6.47;;;2.30;;
6642;SDS011;3357;48.050;7.800;2022-11-23T08:01:57;6.90;;;2.00;;
6642;SDS011;3357;48.050;7.800;2022-11-23T08:04:23;6.33;;;2.00;;
6642;SDS011;3357;48.050;7.800;2022-11-23T08:06:48;3.77;;;1.63;;
6642;SDS011;3357;48.050;7.800;2022-11-23T08:09:16;6.13;;;2.50;;
6642;SDS011;3357;48.050;7.800;2022-11-23T08:11:41;7.00;;;1.90;;
6642;SDS011;3357;48.050;7.800;2022-11-23T08:14:06;6.07;;;1.73;;
6642;SDS011;3357;48.050;7.800;2022-11-23T08:16:32;9.80;;;1.57;;
6642;SDS011;3357;48.050;7.800;2022-11-23T08:18:57;12.50;;;1.40;;
6642;SDS011;3357;48.050;7.800;2022-11-23T08:21:23;9.33;;;1.90;;
6642;SDS011;3357;48.050;7.800;2022-11-23T08:23:48;5.80;;;1.60;;
6642;SDS011;3357;48.050;7.800;2022-11-23T08:26:14;4.40;;;1.50;;
6642;SDS011;3357;48.050;7.800;2022-11-23T08:28:39;4.10;;;1.30;;
6642;SDS011;3357;48.050;7.800;2022-11-23T08:31:05;5.27;;;1.73;;
6642;SDS011;3357;48.050;7.800;2022-11-23T08:33:35;4.27;;;2.53;;
6642;SDS011;3357;48.050;7.800;2022-11-23T08:36:04;4.57;;;1.40;;
6642;SDS011;3357;48.050;7.800;2022-11-23T08:38:31;9.63;;;1.80;;
6642;SDS011;3357;48.050;7.800;2022-11-23T08:41:00;2.90;;;1.63;;
6642;SDS011;3357;48.050;7.800;2022-11-23T08:43:26;7.60;;;1.73;;
6642;SDS011;3357;48.050;7.800;2022-11-23T08:45:58;4.27;;;1.77;;
6642;SDS011;3357;48.050;7.800;2022-11-23T08:48:24;8.00;;;2.10;;
6642;SDS011;3357;48.050;7.800;2022-11-23T08:50:50;7.97;;;2.43;;
6642;SDS011;3357;48.050;7.800;2022-11-23T08:53:15;15.13;;;3.90;;
6642;SDS011;3357;48.050;7.800;2022-11-23T08:55:41;9.20;;;3.20;;
6642;SDS011;3357;48.050;7.800;2022-11-23T08:58:06;12.10;;;3.90;;
6642;SDS011;3357;48.050;7.800;2022-11-23T09:00:32;5.50;;;3.20;;
6642;SDS011;3357;48.050;7.800;2022-11-23T09:02:58;13.87;;;2.97;;
6642;SDS011;3357;48.050;7.800;2022-11-23T09:05:24;5.83;;;2.17;;
6642;SDS011;3357;48.050;7.800;2022-11-23T09:07:49;4.30;;;1.97;;
6642;SDS011;3357;48.050;7.800;2022-11-23T09:10:15;4.90;;;2.03;;
6642;SDS011;3357;48.050;7.800;2022-11-23T09:12:40;6.83;;;2.37;;
6642;SDS011;3357;48.050;7.800;2022-11-23T09:15:06;4.17;;;1.50;;
6642;SDS011;3357;48.050;7.800;2022-11-23T09:17:31;5.23;;;1.87;;
6642;SDS011;3357;48.050;7.800;2022-11-23T09:19:57;3.87;;;1.57;;
6642;SDS011;3357;48.050;7.800;2022-11-23T09:22:22;2.20;;;1.50;;
6642;SDS011;3357;48.050;7.800;2022-11-23T09:24:47;2.73;;;1.27;;
6642;SDS011;3357;48.050;7.800;2022-11-23T09:27:13;1.77;;;1.50;;
6642;SDS011;3357;48.050;7.800;2022-11-23T09:29:38;3.90;;;1.40;;
6642;SDS011;3357;48.050;7.800;2022-11-23T09:32:03;2.93;;;1.20;;
6642;SDS011;3357;48.050;7.800;2022-11-23T09:34:31;4.37;;;1.30;;
6642;SDS011;3357;48.050;7.800;2022-11-23T09:36:56;5.77;;;2.07;;
6642;SDS011;3357;48.050;7.800;2022-11-23T09:39:22;9.90;;;1.80;;
6642;SDS011;3357;48.050;7.800;2022-11-23T09:50:01;6.57;;;1.70;;
6642;SDS011;3357;48.050;7.800;2022-11-23T09:52:35;6.07;;;1.33;;
6642;SDS011;3357;48.050;7.800;2022-11-23T09:55:04;7.50;;;1.30;;
6642;SDS011;3357;48.050;7.800;2022-11-23T09:57:38;3.00;;;1.00;;
6642;SDS011;3357;48.050;7.800;2022-11-23T10:00:06;4.57;;;1.10;;
6642;SDS011;3357;48.050;7.800;2022-11-23T10:02:38;4.47;;;1.30;;
6642;SDS011;3357;48.050;7.800;2022-11-23T10:05:04;5.03;;;1.30;;
6642;SDS011;3357;48.050;7.800;2022-11-23T10:15:39;2.10;;;1.50;;
6642;SDS011;3357;48.050;7.800;2022-11-23T10:26:32;5.57;;;1.43;;
6642;SDS011;3357;48.050;7.800;2022-11-23T10:29:14;3.03;;;1.17;;
6642;SDS011;3357;48.050;7.800;2022-11-23T10:32:04;3.07;;;1.23;;
6642;SDS011;3357;48.050;7.800;2022-11-23T10:37:15;5.03;;;1.20;;
6642;SDS011;3357;48.050;7.800;2022-11-23T10:39:40;3.70;;;1.43;;
6642;SDS011;3357;48.050;7.800;2022-11-23T10:42:52;5.70;;;1.30;;
6642;SDS011;3357;48.050;7.800;2022-11-23T10:44:55;8.10;;;1.80;;
6642;SDS011;3357;48.050;7.800;2022-11-23T10:50:34;2.27;;;1.40;;
6642;SDS011;3357;48.050;7.800;2022-11-23T10:55:56;2.60;;;1.10;;
6642;SDS011;3357;48.050;7.800;2022-11-23T10:58:27;5.60;;;1.60;;
6642;SDS011;3357;48.050;7.800;2022-11-23T11:00:58;2.77;;;1.30;;
6642;SDS011;3357;48.050;7.800;2022-11-23T11:03:24;4.10;;;1.30;;
6642;SDS011;3357;48.050;7.800;2022-11-23T11:05:50;6.40;;;1.43;;
6642;SDS011;3357;48.050;7.800;2022-11-23T11:08:16;3.17;;;1.17;;
6642;SDS011;3357;48.050;7.800;2022-11-23T11:10:43;4.77;;;1.20;;
6642;SDS011;3357;48.050;7.800;2022-11-23T11:15:52;1.73;;;0.90;;
6642;SDS011;3357;48.050;7.800;2022-11-23T11:18:38;3.50;;;0.90;;
6642;SDS011;3357;48.050;7.800;2022-11-23T11:24:12;2.13;;;0.80;;
6642;SDS011;3357;48.050;7.800;2022-11-23T11:37:41;0.80;;;0.70;;
6642;SDS011;3357;48.050;7.800;2022-11-23T11:46:03;2.03;;;0.80;;
6642;SDS011;3357;48.050;7.800;2022-11-23T11:48:44;2.37;;;0.70;;
6642;SDS011;3357;48.050;7.800;2022-11-23T11:54:05;0.80;;;0.60;;
6642;SDS011;3357;48.050;7.800;2022-11-23T11:56:39;0.80;;;0.63;;
6642;SDS011;3357;48.050;7.800;2022-11-23T12:04:19;0.60;;;0.50;;
6642;SDS011;3357;48.050;7.800;2022-11-23T12:06:58;0.70;;;0.57;;
6642;SDS011;3357;48.050;7.800;2022-11-23T12:09:29;0.63;;;0.50;;
6642;SDS011;3357;48.050;7.800;2022-11-23T12:11:57;1.53;;;0.87;;
6642;SDS011;3357;48.050;7.800;2022-11-23T12:14:22;0.40;;;0.40;;
6642;SDS011;3357;48.050;7.800;2022-11-23T12:19:43;0.83;;;0.40;;
6642;SDS011;3357;48.050;7.800;2022-11-23T12:22:20;0.63;;;0.50;;
6642;SDS011;3357;48.050;7.800;2022-11-23T12:24:57;1.20;;;0.40;;
6642;SDS011;3357;48.050;7.800;2022-11-23T12:27:33;0.40;;;0.40;;
6642;SDS011;3357;48.050;7.800;2022-11-23T12:30:21;0.50;;;0.30;;
6642;SDS011;3357;48.050;7.800;2022-11-23T12:35:28;0.50;;;0.40;;
6642;SDS011;3357;48.050;7.800;2022-11-23T12:38:17;1.17;;;0.70;;
6642;SDS011;3357;48.050;7.800;2022-11-23T12:43:44;0.50;;;0.50;;
6642;SDS011;3357;48.050;7.800;2022-11-23T12:46:33;0.93;;;0.47;;
6642;SDS011;3357;48.050;7.800;2022-11-23T12:57:14;0.40;;;0.40;;
6642;SDS011;3357;48.050;7.800;2022-11-23T13:02:31;0.40;;;0.40;;
6642;SDS011;3357;48.050;7.800;2022-11-23T13:16:12;1.10;;;0.93;;
6642;SDS011;3357;48.050;7.800;2022-11-23T13:23:47;0.90;;;0.90;;
6642;SDS011;3357;48.050;7.800;2022-11-23T13:28:46;0.83;;;0.60;;
6642;SDS011;3357;48.050;7.800;2022-11-23T13:33:44;1.13;;;1.03;;
6642;SDS011;3357;48.050;7.800;2022-11-23T13:36:34;1.43;;;1.10;;
6642;SDS011;3357;48.050;7.800;2022-11-23T13:39:02;4.33;;;1.47;;
6642;SDS011;3357;48.050;7.800;2022-11-23T13:44:15;0.60;;;0.60;;
6642;SDS011;3357;48.050;7.800;2022-11-23T13:46:44;0.50;;;0.50;;
6642;SDS011;3357;48.050;7.800;2022-11-23T13:52:21;0.70;;;0.60;;
6642;SDS011;3357;48.050;7.800;2022-11-23T13:57:34;0.93;;;0.50;;
6642;SDS011;3357;48.050;7.800;2022-11-23T14:09:28;0.50;;;0.50;;
6642;SDS011;3357;48.050;7.800;2022-11-23T14:12:07;0.67;;;0.50;;
6642;SDS011;3357;48.050;7.800;2022-11-23T14:22:46;2.47;;;1.53;;
6642;SDS011;3357;48.050;7.800;2022-11-23T14:30:55;1.70;;;1.60;;
6642;SDS011;3357;48.050;7.800;2022-11-23T14:38:55;0.60;;;0.50;;
6642;SDS011;3357;48.050;7.800;2022-11-23T14:41:28;0.70;;;0.60;;
6642;SDS011;3357;48.050;7.800;2022-11-23T14:43:59;0.80;;;0.67;;
6642;SDS011;3357;48.050;7.800;2022-11-23T14:46:24;3.23;;;0.60;;
6642;SDS011;3357;48.050;7.800;2022-11-23T14:48:51;0.70;;;0.60;;
6642;SDS011;3357;48.050;7.800;2022-11-23T14:51:22;2.10;;;0.60;;
6642;SDS011;3357;48.050;7.800;2022-11-23T14:54:00;1.33;;;0.60;;
6642;SDS011;3357;48.050;7.800;2022-11-23T14:56:32;0.50;;;0.50;;
6642;SDS011;3357;48.050;7.800;2022-11-23T15:01:46;11.97;;;0.60;;
6642;SDS011;3357;48.050;7.800;2022-11-23T15:06:49;1.00;;;0.60;;
6642;SDS011;3357;48.050;7.800;2022-11-23T15:09:31;1.20;;;0.73;;
6642;SDS011;3357;48.050;7.800;2022-11-23T15:12:07;0.93;;;0.70;;
6642;SDS011;3357;48.050;7.800;2022-11-23T15:14:50;1.30;;;0.90;;
6642;SDS011;3357;48.050;7.800;2022-11-23T15:17:18;0.63;;;0.60;;
6642;SDS011;3357;48.050;7.800;2022-11-23T15:20:18;0.87;;;0.60;;
6642;SDS011;3357;48.050;7.800;2022-11-23T15:22:37;0.70;;;0.60;;
6642;SDS011;3357;48.050;7.800;2022-11-23T15:25:05;5.63;;;2.53;;
6642;SDS011;3357;48.050;7.800;2022-11-23T15:27:35;1.17;;;0.80;;
6642;SDS011;3357;48.050;7.800;2022-11-23T15:30:12;0.63;;;0.60;;
6642;SDS011;3357;48.050;7.800;2022-11-23T15:32:41;0.70;;;0.70;;
6642;SDS011;3357;48.050;7.800;2022-11-23T15:35:09;0.77;;;0.70;;
6642;SDS011;3357;48.050;7.800;2022-11-23T15:37:38;0.90;;;0.70;;
6642;SDS011;3357;48.050;7.800;2022-11-23T15:40:10;1.70;;;0.80;;
6642;SDS011;3357;48.050;7.800;2022-11-23T15:42:37;0.70;;;0.70;;
6642;SDS011;3357;48.050;7.800;2022-11-23T15:45:04;2.03;;;0.60;;
6642;SDS011;3357;48.050;7.800;2022-11-23T15:47:29;1.10;;;0.77;;
6642;SDS011;3357;48.050;7.800;2022-11-23T15:50:01;2.90;;;1.63;;
6642;SDS011;3357;48.050;7.800;2022-11-23T15:52:33;1.23;;;1.00;;
6642;SDS011;3357;48.050;7.800;2022-11-23T15:55:06;3.57;;;1.10;;
6642;SDS011;3357;48.050;7.800;2022-11-23T15:57:34;4.73;;;3.97;;
6642;SDS011;3357;48.050;7.800;2022-11-23T16:00:00;10.33;;;5.67;;
6642;SDS011;3357;48.050;7.800;2022-11-23T16:02:29;12.03;;;7.00;;
6642;SDS011;3357;48.050;7.800;2022-11-23T16:07:54;23.40;;;13.83;;
6642;SDS011;3357;48.050;7.800;2022-11-23T16:10:22;32.63;;;17.30;;
6642;SDS011;3357;48.050;7.800;2022-11-23T16:12:51;13.63;;;7.20;;
6642;SDS011;3357;48.050;7.800;2022-11-23T16:20:48;3.77;;;3.27;;
6642;SDS011;3357;48.050;7.800;2022-11-23T16:23:21;12.30;;;6.77;;
6642;SDS011;3357;48.050;7.800;2022-11-23T16:25:52;20.33;;;10.10;;
6642;SDS011;3357;48.050;7.800;2022-11-23T16:28:29;15.40;;;9.27;;
6642;SDS011;3357;48.050;7.800;2022-11-23T16:30:56;10.90;;;7.30;;
6642;SDS011;3357;48.050;7.800;2022-11-23T16:33:22;14.37;;;8.10;;
6642;SDS011;3357;48.050;7.800;2022-11-23T16:35:48;19.20;;;8.70;;
6642;SDS011;3357;48.050;7.800;2022-11-23T16:38:13;11.53;;;7.40;;
6642;SDS011;3357;48.050;7.800;2022-11-23T16:40:39;8.47;;;5.63;;
6642;SDS011;3357;48.050;7.800;2022-11-23T16:43:10;6.73;;;3.83;;
6642;SDS011;3357;48.050;7.800;2022-11-23T16:45:41;8.53;;;3.87;;
6642;SDS011;3357;48.050;7.800;2022-11-23T16:50:50;5.63;;;3.10;;
6642;SDS011;3357;48.050;7.800;2022-11-23T16:53:19;6.40;;;2.30;;
6642;SDS011;3357;48.050;7.800;2022-11-23T16:55:46;3.97;;;2.27;;
6642;SDS011;3357;48.050;7.800;2022-11-23T16:58:12;9.73;;;2.60;;
6642;SDS011;3357;48.050;7.800;2022-11-23T17:00:38;7.93;;;3.80;;
6642;SDS011;3357;48.050;7.800;2022-11-23T17:03:04;11.70;;;3.80;;
6642;SDS011;3357;48.050;7.800;2022-11-23T17:05:29;5.97;;;4.63;;
6642;SDS011;3357;48.050;7.800;2022-11-23T17:07:54;2.53;;;2.10;;
6642;SDS011;3357;48.050;7.800;2022-11-23T17:10:19;2.03;;;1.90;;
6642;SDS011;3357;48.050;7.800;2022-11-23T17:12:49;1.60;;;1.50;;
6642;SDS011;3357;48.050;7.800;2022-11-23T17:15:17;2.73;;;1.73;;
6642;SDS011;3357;48.050;7.800;2022-11-23T17:17:44;2.97;;;0.90;;
6642;SDS011;3357;48.050;7.800;2022-11-23T17:20:13;1.60;;;1.00;;
6642;SDS011;3357;48.050;7.800;2022-11-23T17:22:40;1.90;;;0.80;;
6642;SDS011;3357;48.050;7.800;2022-11-23T17:25:09;1.47;;;1.10;;
6642;SDS011;3357;48.050;7.800;2022-11-23T17:27:37;0.73;;;0.73;;
6642;SDS011;3357;48.050;7.800;2022-11-23T17:30:14;0.67;;;0.67;;
6642;SDS011;3357;48.050;7.800;2022-11-23T17:32:41;0.60;;;0.60;;
6642;SDS011;3357;48.050;7.800;2022-11-23T17:35:06;0.70;;;0.67;;
6642;SDS011;3357;48.050;7.800;2022-11-23T17:37:32;0.53;;;0.50;;
6642;SDS011;3357;48.050;7.800;2022-11-23T17:39:57;0.70;;;0.70;;
6642;SDS011;3357;48.050;7.800;2022-11-23T17:42:22;0.70;;;0.70;;
6642;SDS011;3357;48.050;7.800;2022-11-23T17:44:48;2.67;;;0.80;;
6642;SDS011;3357;48.050;7.800;2022-11-23T17:47:23;2.00;;;0.60;;
6642;SDS011;3357;48.050;7.800;2022-11-23T17:49:49;1.13;;;0.93;;
6642;SDS011;3357;48.050;7.800;2022-11-23T17:52:16;0.70;;;0.70;;
6642;SDS011;3357;48.050;7.800;2022-11-23T17:54:41;0.70;;;0.70;;
6642;SDS011;3357;48.050;7.800;2022-11-23T17:57:13;1.60;;;0.80;;
6642;SDS011;3357;48.050;7.800;2022-11-23T17:59:40;1.43;;;1.00;;
6642;SDS011;3357;48.050;7.800;2022-11-23T18:02:05;0.83;;;0.70;;
6642;SDS011;3357;48.050;7.800;2022-11-23T18:04:31;1.20;;;0.80;;